sensor_id;sensor_type;location;lat;lon;timestamp;P1;durP1;ratioP1;P2;durP2;ratioP2
69047;SDS011;56119;50.118;8.642;2023-08-06T00:00:56;12.82;;;9.52;;
69047;SDS011;56119;50.118;8.642;2023-08-06T00:03:22;11.10;;;9.75;;
69047;SDS011;56119;50.118;8.642;2023-08-06T00:05:48;13.60;;;10.38;;
69047;SDS011;56119;50.118;8.642;2023-08-06T00:08:14;12.02;;;9.98;;
69047;SDS011;56119;50.118;8.642;2023-08-06T00:10:40;14.35;;;10.38;;
69047;SDS011;56119;50.118;8.642;2023-08-06T00:13:06;10.95;;;8.77;;
69047;SDS011;56119;50.118;8.642;2023-08-06T00:15:32;14.05;;;11.55;;
69047;SDS011;56119;50.118;8.642;2023-08-06T00:17:58;11.23;;;9.80;;
69047;SDS011;56119;50.118;8.642;2023-08-06T00:20:24;11.90;;;9.80;;
69047;SDS011;56119;50.118;8.642;2023-08-06T00:22:50;11.52;;;10.38;;
69047;SDS011;56119;50.118;8.642;2023-08-06T00:25:16;10.35;;;8.48;;
69047;SDS011;56119;50.118;8.642;2023-08-06T00:27:42;8.32;;;7.30;;
69047;SDS011;56119;50.118;8.642;2023-08-06T00:30:08;12.15;;;9.40;;
69047;SDS011;56119;50.118;8.642;2023-08-06T00:32:34;11.95;;;9.63;;
69047;SDS011;56119;50.118;8.642;2023-08-06T00:35:00;10.73;;;9.18;;
69047;SDS011;56119;50.118;8.642;2023-08-06T00:37:26;10.95;;;9.23;;
69047;SDS011;56119;50.118;8.642;2023-08-06T00:39:52;11.55;;;9.10;;
69047;SDS011;56119;50.118;8.642;2023-08-06T00:42:18;9.90;;;7.85;;
69047;SDS011;56119;50.118;8.642;2023-08-06T00:44:45;11.00;;;8.45;;
69047;SDS011;56119;50.118;8.642;2023-08-06T00:47:11;10.35;;;9.35;;
69047;SDS011;56119;50.118;8.642;2023-08-06T00:49:37;10.27;;;8.90;;
69047;SDS011;56119;50.118;8.642;2023-08-06T00:52:05;9.27;;;7.85;;
69047;SDS011;56119;50.118;8.642;2023-08-06T00:54:31;10.43;;;8.75;;
69047;SDS011;56119;50.118;8.642;2023-08-06T00:56:57;11.13;;;9.65;;
69047;SDS011;56119;50.118;8.642;2023-08-06T00:59:23;10.75;;;8.57;;
69047;SDS011;56119;50.118;8.642;2023-08-06T01:01:49;13.15;;;11.30;;
69047;SDS011;56119;50.118;8.642;2023-08-06T01:04:15;11.85;;;9.40;;
69047;SDS011;56119;50.118;8.642;2023-08-06T01:12:06;11.15;;;9.52;;
69047;SDS011;56119;50.118;8.642;2023-08-06T01:17:14;9.65;;;7.72;;
69047;SDS011;56119;50.118;8.642;2023-08-06T01:19:40;10.13;;;8.52;;
69047;SDS011;56119;50.118;8.642;2023-08-06T01:22:06;10.13;;;8.45;;
69047;SDS011;56119;50.118;8.642;2023-08-06T01:24:32;11.82;;;9.77;;
69047;SDS011;56119;50.118;8.642;2023-08-06T01:27:03;11.50;;;8.88;;
69047;SDS011;56119;50.118;8.642;2023-08-06T01:29:43;10.52;;;8.65;;
69047;SDS011;56119;50.118;8.642;2023-08-06T01:32:11;8.80;;;7.90;;
69047;SDS011;56119;50.118;8.642;2023-08-06T01:34:39;10.27;;;8.65;;
69047;SDS011;56119;50.118;8.642;2023-08-06T01:37:06;9.98;;;8.00;;
69047;SDS011;56119;50.118;8.642;2023-08-06T01:39:35;10.75;;;8.20;;
69047;SDS011;56119;50.118;8.642;2023-08-06T01:42:01;11.00;;;8.85;;
69047;SDS011;56119;50.118;8.642;2023-08-06T01:44:27;10.18;;;8.23;;
69047;SDS011;56119;50.118;8.642;2023-08-06T01:46:53;8.52;;;7.68;;
69047;SDS011;56119;50.118;8.642;2023-08-06T01:49:19;7.95;;;7.15;;
69047;SDS011;56119;50.118;8.642;2023-08-06T01:51:45;7.00;;;6.15;;
69047;SDS011;56119;50.118;8.642;2023-08-06T01:54:11;8.25;;;6.45;;
69047;SDS011;56119;50.118;8.642;2023-08-06T01:56:37;7.97;;;7.10;;
69047;SDS011;56119;50.118;8.642;2023-08-06T01:59:03;9.32;;;7.47;;
69047;SDS011;56119;50.118;8.642;2023-08-06T02:01:29;8.02;;;7.22;;
69047;SDS011;56119;50.118;8.642;2023-08-06T02:03:55;7.95;;;6.75;;
69047;SDS011;56119;50.118;8.642;2023-08-06T02:06:21;9.73;;;7.95;;
69047;SDS011;56119;50.118;8.642;2023-08-06T02:08:47;8.63;;;7.25;;
69047;SDS011;56119;50.118;8.642;2023-08-06T02:11:13;7.93;;;6.47;;
69047;SDS011;56119;50.118;8.642;2023-08-06T02:13:39;8.40;;;6.72;;
69047;SDS011;56119;50.118;8.642;2023-08-06T02:16:06;7.32;;;6.63;;
69047;SDS011;56119;50.118;8.642;2023-08-06T02:18:33;10.48;;;6.95;;
69047;SDS011;56119;50.118;8.642;2023-08-06T02:20:59;9.02;;;7.15;;
69047;SDS011;56119;50.118;8.642;2023-08-06T02:23:25;11.77;;;7.15;;
69047;SDS011;56119;50.118;8.642;2023-08-06T02:26:01;7.63;;;6.00;;
69047;SDS011;56119;50.118;8.642;2023-08-06T02:28:30;8.30;;;7.00;;
69047;SDS011;56119;50.118;8.642;2023-08-06T02:30:57;8.27;;;7.00;;
69047;SDS011;56119;50.118;8.642;2023-08-06T02:33:23;8.85;;;5.75;;
69047;SDS011;56119;50.118;8.642;2023-08-06T02:35:49;9.65;;;5.85;;
69047;SDS011;56119;50.118;8.642;2023-08-06T02:38:15;8.95;;;7.05;;
69047;SDS011;56119;50.118;8.642;2023-08-06T02:40:47;8.23;;;6.22;;
69047;SDS011;56119;50.118;8.642;2023-08-06T02:43:13;9.27;;;6.80;;
69047;SDS011;56119;50.118;8.642;2023-08-06T02:45:39;8.27;;;7.38;;
69047;SDS011;56119;50.118;8.642;2023-08-06T02:48:05;10.95;;;7.13;;
69047;SDS011;56119;50.118;8.642;2023-08-06T02:50:37;7.93;;;6.47;;
69047;SDS011;56119;50.118;8.642;2023-08-06T02:53:04;8.38;;;6.65;;
69047;SDS011;56119;50.118;8.642;2023-08-06T02:55:31;7.70;;;6.10;;
69047;SDS011;56119;50.118;8.642;2023-08-06T02:57:57;7.50;;;6.65;;
69047;SDS011;56119;50.118;8.642;2023-08-06T03:00:23;8.07;;;5.63;;
69047;SDS011;56119;50.118;8.642;2023-08-06T03:02:49;8.20;;;5.40;;
69047;SDS011;56119;50.118;8.642;2023-08-06T03:05:14;6.60;;;5.85;;
69047;SDS011;56119;50.118;8.642;2023-08-06T03:07:40;7.60;;;5.72;;
69047;SDS011;56119;50.118;8.642;2023-08-06T03:10:06;8.07;;;6.80;;
69047;SDS011;56119;50.118;8.642;2023-08-06T03:12:32;8.07;;;6.30;;
69047;SDS011;56119;50.118;8.642;2023-08-06T03:14:58;8.48;;;5.10;;
69047;SDS011;56119;50.118;8.642;2023-08-06T03:17:24;7.20;;;5.05;;
69047;SDS011;56119;50.118;8.642;2023-08-06T03:19:50;7.68;;;6.45;;
69047;SDS011;56119;50.118;8.642;2023-08-06T03:22:16;7.20;;;6.18;;
69047;SDS011;56119;50.118;8.642;2023-08-06T03:24:42;7.10;;;4.45;;
69047;SDS011;56119;50.118;8.642;2023-08-06T03:27:08;6.95;;;4.95;;
69047;SDS011;56119;50.118;8.642;2023-08-06T03:29:34;7.68;;;5.60;;
69047;SDS011;56119;50.118;8.642;2023-08-06T03:32:00;7.03;;;5.22;;
69047;SDS011;56119;50.118;8.642;2023-08-06T03:34:26;8.55;;;6.22;;
69047;SDS011;56119;50.118;8.642;2023-08-06T03:36:52;6.03;;;4.55;;
69047;SDS011;56119;50.118;8.642;2023-08-06T03:39:18;5.57;;;4.93;;
69047;SDS011;56119;50.118;8.642;2023-08-06T03:41:44;6.45;;;4.55;;
69047;SDS011;56119;50.118;8.642;2023-08-06T03:44:10;7.72;;;4.70;;
69047;SDS011;56119;50.118;8.642;2023-08-06T03:46:36;8.00;;;4.10;;
69047;SDS011;56119;50.118;8.642;2023-08-06T03:49:02;6.82;;;4.80;;
69047;SDS011;56119;50.118;8.642;2023-08-06T03:51:28;7.60;;;4.50;;
69047;SDS011;56119;50.118;8.642;2023-08-06T03:53:54;6.65;;;4.13;;
69047;SDS011;56119;50.118;8.642;2023-08-06T03:56:20;6.88;;;4.03;;
69047;SDS011;56119;50.118;8.642;2023-08-06T03:58:46;8.40;;;4.57;;
69047;SDS011;56119;50.118;8.642;2023-08-06T04:01:12;5.70;;;4.57;;
69047;SDS011;56119;50.118;8.642;2023-08-06T04:03:38;5.93;;;4.00;;
69047;SDS011;56119;50.118;8.642;2023-08-06T04:06:04;7.03;;;4.57;;
69047;SDS011;56119;50.118;8.642;2023-08-06T04:08:30;4.43;;;3.40;;
69047;SDS011;56119;50.118;8.642;2023-08-06T04:10:57;7.15;;;4.10;;
69047;SDS011;56119;50.118;8.642;2023-08-06T04:13:22;6.55;;;3.88;;
69047;SDS011;56119;50.118;8.642;2023-08-06T04:15:48;6.45;;;3.85;;
69047;SDS011;56119;50.118;8.642;2023-08-06T04:18:14;6.65;;;3.50;;
69047;SDS011;56119;50.118;8.642;2023-08-06T04:20:44;6.68;;;3.42;;
69047;SDS011;56119;50.118;8.642;2023-08-06T04:23:10;5.55;;;3.42;;
69047;SDS011;56119;50.118;8.642;2023-08-06T04:25:36;4.63;;;3.15;;
69047;SDS011;56119;50.118;8.642;2023-08-06T04:28:02;6.40;;;3.17;;
69047;SDS011;56119;50.118;8.642;2023-08-06T04:30:28;6.85;;;3.00;;
69047;SDS011;56119;50.118;8.642;2023-08-06T04:32:56;6.65;;;3.40;;
69047;SDS011;56119;50.118;8.642;2023-08-06T04:35:22;6.43;;;2.53;;
69047;SDS011;56119;50.118;8.642;2023-08-06T04:37:48;7.53;;;2.95;;
69047;SDS011;56119;50.118;8.642;2023-08-06T04:40:14;5.88;;;3.22;;
69047;SDS011;56119;50.118;8.642;2023-08-06T04:42:40;5.25;;;2.75;;
69047;SDS011;56119;50.118;8.642;2023-08-06T04:45:06;6.82;;;3.33;;
69047;SDS011;56119;50.118;8.642;2023-08-06T04:47:33;5.18;;;3.10;;
69047;SDS011;56119;50.118;8.642;2023-08-06T04:49:59;6.65;;;3.13;;
69047;SDS011;56119;50.118;8.642;2023-08-06T04:52:24;6.05;;;2.95;;
69047;SDS011;56119;50.118;8.642;2023-08-06T04:54:53;4.35;;;2.42;;
69047;SDS011;56119;50.118;8.642;2023-08-06T04:57:19;6.30;;;2.88;;
69047;SDS011;56119;50.118;8.642;2023-08-06T04:59:45;6.40;;;3.10;;
69047;SDS011;56119;50.118;8.642;2023-08-06T05:02:11;7.10;;;3.20;;
69047;SDS011;56119;50.118;8.642;2023-08-06T05:04:37;7.75;;;3.17;;
69047;SDS011;56119;50.118;8.642;2023-08-06T05:07:03;4.72;;;2.72;;
69047;SDS011;56119;50.118;8.642;2023-08-06T05:09:29;5.28;;;2.67;;
69047;SDS011;56119;50.118;8.642;2023-08-06T05:11:55;6.40;;;2.95;;
69047;SDS011;56119;50.118;8.642;2023-08-06T05:14:21;3.70;;;2.67;;
69047;SDS011;56119;50.118;8.642;2023-08-06T05:16:47;4.65;;;2.60;;
69047;SDS011;56119;50.118;8.642;2023-08-06T05:19:13;5.63;;;2.50;;
69047;SDS011;56119;50.118;8.642;2023-08-06T05:21:39;4.18;;;2.35;;
69047;SDS011;56119;50.118;8.642;2023-08-06T05:24:05;4.03;;;2.17;;
69047;SDS011;56119;50.118;8.642;2023-08-06T05:26:31;4.50;;;2.30;;
69047;SDS011;56119;50.118;8.642;2023-08-06T05:28:57;4.95;;;2.47;;
69047;SDS011;56119;50.118;8.642;2023-08-06T05:31:23;4.30;;;2.90;;
69047;SDS011;56119;50.118;8.642;2023-08-06T05:33:49;3.53;;;2.20;;
69047;SDS011;56119;50.118;8.642;2023-08-06T05:36:15;4.97;;;2.92;;
69047;SDS011;56119;50.118;8.642;2023-08-06T05:38:42;4.07;;;2.88;;
69047;SDS011;56119;50.118;8.642;2023-08-06T05:41:08;2.83;;;2.00;;
69047;SDS011;56119;50.118;8.642;2023-08-06T05:43:34;4.68;;;2.33;;
69047;SDS011;56119;50.118;8.642;2023-08-06T05:46:00;3.40;;;2.00;;
69047;SDS011;56119;50.118;8.642;2023-08-06T05:48:26;2.42;;;1.80;;
69047;SDS011;56119;50.118;8.642;2023-08-06T05:50:52;3.45;;;1.73;;
69047;SDS011;56119;50.118;8.642;2023-08-06T05:53:18;2.72;;;2.08;;
69047;SDS011;56119;50.118;8.642;2023-08-06T05:55:44;2.45;;;1.85;;
69047;SDS011;56119;50.118;8.642;2023-08-06T05:58:10;4.18;;;2.10;;
69047;SDS011;56119;50.118;8.642;2023-08-06T06:00:36;2.78;;;1.80;;
69047;SDS011;56119;50.118;8.642;2023-08-06T06:03:02;2.97;;;2.15;;
69047;SDS011;56119;50.118;8.642;2023-08-06T06:05:28;4.60;;;2.45;;
69047;SDS011;56119;50.118;8.642;2023-08-06T06:07:54;3.03;;;2.22;;
69047;SDS011;56119;50.118;8.642;2023-08-06T06:10:20;3.05;;;2.03;;
69047;SDS011;56119;50.118;8.642;2023-08-06T06:12:46;4.57;;;2.33;;
69047;SDS011;56119;50.118;8.642;2023-08-06T06:15:12;5.72;;;2.33;;
69047;SDS011;56119;50.118;8.642;2023-08-06T06:17:39;5.82;;;1.90;;
69047;SDS011;56119;50.118;8.642;2023-08-06T06:20:05;3.30;;;1.75;;
69047;SDS011;56119;50.118;8.642;2023-08-06T06:22:31;3.55;;;1.90;;
69047;SDS011;56119;50.118;8.642;2023-08-06T06:24:57;3.00;;;1.80;;
69047;SDS011;56119;50.118;8.642;2023-08-06T06:27:23;3.97;;;1.27;;
69047;SDS011;56119;50.118;8.642;2023-08-06T06:29:49;3.05;;;1.73;;
69047;SDS011;56119;50.118;8.642;2023-08-06T06:32:16;2.28;;;1.00;;
69047;SDS011;56119;50.118;8.642;2023-08-06T06:34:42;2.38;;;1.02;;
69047;SDS011;56119;50.118;8.642;2023-08-06T06:37:08;1.90;;;0.90;;
69047;SDS011;56119;50.118;8.642;2023-08-06T06:39:34;2.63;;;0.77;;
69047;SDS011;56119;50.118;8.642;2023-08-06T06:42:00;2.28;;;0.88;;
69047;SDS011;56119;50.118;8.642;2023-08-06T06:44:26;1.17;;;0.57;;
69047;SDS011;56119;50.118;8.642;2023-08-06T06:46:52;2.72;;;0.90;;
69047;SDS011;56119;50.118;8.642;2023-08-06T06:49:17;2.22;;;1.40;;
69047;SDS011;56119;50.118;8.642;2023-08-06T06:51:43;2.65;;;0.90;;
69047;SDS011;56119;50.118;8.642;2023-08-06T06:54:09;2.83;;;1.10;;
69047;SDS011;56119;50.118;8.642;2023-08-06T06:56:36;2.30;;;1.10;;
69047;SDS011;56119;50.118;8.642;2023-08-06T06:59:02;2.42;;;1.10;;
69047;SDS011;56119;50.118;8.642;2023-08-06T07:01:28;2.60;;;1.27;;
69047;SDS011;56119;50.118;8.642;2023-08-06T07:03:54;3.83;;;1.70;;
69047;SDS011;56119;50.118;8.642;2023-08-06T07:06:20;3.65;;;1.30;;
69047;SDS011;56119;50.118;8.642;2023-08-06T07:08:46;2.03;;;1.42;;
69047;SDS011;56119;50.118;8.642;2023-08-06T07:11:12;2.72;;;1.52;;
69047;SDS011;56119;50.118;8.642;2023-08-06T07:13:38;2.53;;;1.30;;
69047;SDS011;56119;50.118;8.642;2023-08-06T07:16:04;1.92;;;0.95;;
69047;SDS011;56119;50.118;8.642;2023-08-06T07:18:30;1.73;;;1.33;;
69047;SDS011;56119;50.118;8.642;2023-08-06T07:20:56;2.00;;;1.10;;
69047;SDS011;56119;50.118;8.642;2023-08-06T07:23:23;1.58;;;1.10;;
69047;SDS011;56119;50.118;8.642;2023-08-06T07:25:49;1.73;;;0.90;;
69047;SDS011;56119;50.118;8.642;2023-08-06T07:28:15;2.65;;;1.23;;
69047;SDS011;56119;50.118;8.642;2023-08-06T07:30:42;1.75;;;1.02;;
69047;SDS011;56119;50.118;8.642;2023-08-06T07:33:08;4.93;;;1.10;;
69047;SDS011;56119;50.118;8.642;2023-08-06T07:35:34;2.72;;;1.45;;
69047;SDS011;56119;50.118;8.642;2023-08-06T07:38:01;2.45;;;1.05;;
69047;SDS011;56119;50.118;8.642;2023-08-06T07:40:27;4.13;;;1.40;;
69047;SDS011;56119;50.118;8.642;2023-08-06T07:42:53;1.75;;;0.98;;
69047;SDS011;56119;50.118;8.642;2023-08-06T07:45:19;2.63;;;1.35;;
69047;SDS011;56119;50.118;8.642;2023-08-06T07:47:45;2.35;;;1.33;;
69047;SDS011;56119;50.118;8.642;2023-08-06T07:50:11;3.15;;;1.00;;
69047;SDS011;56119;50.118;8.642;2023-08-06T07:52:37;3.75;;;1.13;;
69047;SDS011;56119;50.118;8.642;2023-08-06T07:55:03;1.05;;;0.82;;
69047;SDS011;56119;50.118;8.642;2023-08-06T07:57:33;1.23;;;0.70;;
69047;SDS011;56119;50.118;8.642;2023-08-06T07:59:59;1.75;;;0.75;;
69047;SDS011;56119;50.118;8.642;2023-08-06T08:02:25;2.88;;;0.85;;
69047;SDS011;56119;50.118;8.642;2023-08-06T08:04:51;1.65;;;0.90;;
69047;SDS011;56119;50.118;8.642;2023-08-06T08:07:18;2.70;;;1.10;;
69047;SDS011;56119;50.118;8.642;2023-08-06T08:09:44;2.78;;;1.30;;
69047;SDS011;56119;50.118;8.642;2023-08-06T08:12:10;3.00;;;1.17;;
69047;SDS011;56119;50.118;8.642;2023-08-06T08:14:35;4.25;;;1.23;;
69047;SDS011;56119;50.118;8.642;2023-08-06T08:17:05;1.33;;;0.95;;
69047;SDS011;56119;50.118;8.642;2023-08-06T08:19:31;4.03;;;1.30;;
69047;SDS011;56119;50.118;8.642;2023-08-06T08:21:57;2.05;;;1.00;;
69047;SDS011;56119;50.118;8.642;2023-08-06T08:24:23;1.95;;;0.90;;
69047;SDS011;56119;50.118;8.642;2023-08-06T08:26:50;2.30;;;0.90;;
69047;SDS011;56119;50.118;8.642;2023-08-06T08:29:16;1.75;;;0.93;;
69047;SDS011;56119;50.118;8.642;2023-08-06T08:31:42;1.33;;;0.80;;
69047;SDS011;56119;50.118;8.642;2023-08-06T08:34:09;2.45;;;0.60;;
69047;SDS011;56119;50.118;8.642;2023-08-06T08:36:35;2.65;;;1.10;;
69047;SDS011;56119;50.118;8.642;2023-08-06T08:39:01;2.08;;;1.00;;
69047;SDS011;56119;50.118;8.642;2023-08-06T08:41:30;1.10;;;0.80;;
69047;SDS011;56119;50.118;8.642;2023-08-06T08:43:58;1.75;;;0.70;;
69047;SDS011;56119;50.118;8.642;2023-08-06T08:46:27;1.00;;;0.77;;
69047;SDS011;56119;50.118;8.642;2023-08-06T08:48:54;1.10;;;0.70;;
69047;SDS011;56119;50.118;8.642;2023-08-06T08:51:21;1.08;;;0.80;;
69047;SDS011;56119;50.118;8.642;2023-08-06T08:53:48;1.58;;;0.77;;
69047;SDS011;56119;50.118;8.642;2023-08-06T08:56:14;0.80;;;0.63;;
69047;SDS011;56119;50.118;8.642;2023-08-06T08:58:40;0.82;;;0.60;;
69047;SDS011;56119;50.118;8.642;2023-08-06T09:01:06;1.88;;;0.63;;
69047;SDS011;56119;50.118;8.642;2023-08-06T09:03:33;1.17;;;0.70;;
69047;SDS011;56119;50.118;8.642;2023-08-06T09:05:59;2.00;;;0.93;;
69047;SDS011;56119;50.118;8.642;2023-08-06T09:08:27;1.52;;;0.75;;
69047;SDS011;56119;50.118;8.642;2023-08-06T09:10:53;0.88;;;0.60;;
69047;SDS011;56119;50.118;8.642;2023-08-06T09:13:19;1.40;;;0.70;;
69047;SDS011;56119;50.118;8.642;2023-08-06T09:15:46;2.65;;;0.90;;
69047;SDS011;56119;50.118;8.642;2023-08-06T09:18:12;1.13;;;0.80;;
69047;SDS011;56119;50.118;8.642;2023-08-06T09:20:38;2.42;;;0.90;;
69047;SDS011;56119;50.118;8.642;2023-08-06T09:23:08;1.20;;;0.70;;
69047;SDS011;56119;50.118;8.642;2023-08-06T09:25:36;1.92;;;0.60;;
69047;SDS011;56119;50.118;8.642;2023-08-06T09:28:03;0.40;;;0.32;;
69047;SDS011;56119;50.118;8.642;2023-08-06T09:30:30;0.73;;;0.50;;
69047;SDS011;56119;50.118;8.642;2023-08-06T09:32:56;0.82;;;0.50;;
69047;SDS011;56119;50.118;8.642;2023-08-06T09:35:22;1.10;;;0.45;;
69047;SDS011;56119;50.118;8.642;2023-08-06T09:37:48;1.15;;;0.90;;
69047;SDS011;56119;50.118;8.642;2023-08-06T09:40:29;1.02;;;0.43;;
69047;SDS011;56119;50.118;8.642;2023-08-06T09:42:56;0.93;;;0.38;;
69047;SDS011;56119;50.118;8.642;2023-08-06T09:45:22;2.33;;;0.52;;
69047;SDS011;56119;50.118;8.642;2023-08-06T09:47:49;1.15;;;0.45;;
69047;SDS011;56119;50.118;8.642;2023-08-06T09:50:18;0.90;;;0.57;;
69047;SDS011;56119;50.118;8.642;2023-08-06T09:52:45;1.25;;;0.80;;
69047;SDS011;56119;50.118;8.642;2023-08-06T09:55:12;0.98;;;0.70;;
69047;SDS011;56119;50.118;8.642;2023-08-06T09:57:39;2.08;;;0.80;;
69047;SDS011;56119;50.118;8.642;2023-08-06T10:00:06;2.55;;;0.70;;
69047;SDS011;56119;50.118;8.642;2023-08-06T10:02:34;1.08;;;0.50;;
69047;SDS011;56119;50.118;8.642;2023-08-06T10:05:01;0.80;;;0.50;;
69047;SDS011;56119;50.118;8.642;2023-08-06T10:07:27;0.90;;;0.47;;
69047;SDS011;56119;50.118;8.642;2023-08-06T10:09:55;1.70;;;0.40;;
69047;SDS011;56119;50.118;8.642;2023-08-06T10:12:21;0.85;;;0.32;;
69047;SDS011;56119;50.118;8.642;2023-08-06T10:14:48;0.85;;;0.40;;
69047;SDS011;56119;50.118;8.642;2023-08-06T10:17:15;2.63;;;0.80;;
69047;SDS011;56119;50.118;8.642;2023-08-06T10:19:41;0.93;;;0.50;;
69047;SDS011;56119;50.118;8.642;2023-08-06T10:24:48;0.65;;;0.45;;
69047;SDS011;56119;50.118;8.642;2023-08-06T10:27:19;1.75;;;0.52;;
69047;SDS011;56119;50.118;8.642;2023-08-06T10:29:45;0.93;;;0.40;;
69047;SDS011;56119;50.118;8.642;2023-08-06T10:32:11;0.35;;;0.35;;
69047;SDS011;56119;50.118;8.642;2023-08-06T10:37:20;1.23;;;0.63;;
69047;SDS011;56119;50.118;8.642;2023-08-06T10:39:53;1.63;;;0.68;;
69047;SDS011;56119;50.118;8.642;2023-08-06T10:42:22;1.65;;;0.80;;
69047;SDS011;56119;50.118;8.642;2023-08-06T10:47:53;1.30;;;0.77;;
69047;SDS011;56119;50.118;8.642;2023-08-06T10:50:19;0.70;;;0.43;;
69047;SDS011;56119;50.118;8.642;2023-08-06T10:52:46;1.20;;;0.30;;
69047;SDS011;56119;50.118;8.642;2023-08-06T10:55:12;1.90;;;0.50;;
69047;SDS011;56119;50.118;8.642;2023-08-06T10:57:39;0.80;;;0.40;;
69047;SDS011;56119;50.118;8.642;2023-08-06T11:00:05;1.92;;;0.40;;
69047;SDS011;56119;50.118;8.642;2023-08-06T11:02:38;0.90;;;0.20;;
69047;SDS011;56119;50.118;8.642;2023-08-06T11:05:07;1.80;;;0.60;;
69047;SDS011;56119;50.118;8.642;2023-08-06T11:07:34;0.57;;;0.30;;
69047;SDS011;56119;50.118;8.642;2023-08-06T11:10:03;0.43;;;0.30;;
69047;SDS011;56119;50.118;8.642;2023-08-06T11:12:30;0.80;;;0.40;;
69047;SDS011;56119;50.118;8.642;2023-08-06T11:14:56;1.20;;;0.50;;
69047;SDS011;56119;50.118;8.642;2023-08-06T11:17:22;0.57;;;0.40;;
69047;SDS011;56119;50.118;8.642;2023-08-06T11:19:48;0.85;;;0.52;;
69047;SDS011;56119;50.118;8.642;2023-08-06T11:22:15;0.95;;;0.60;;
69047;SDS011;56119;50.118;8.642;2023-08-06T11:24:41;0.90;;;0.55;;
69047;SDS011;56119;50.118;8.642;2023-08-06T11:27:11;1.67;;;0.40;;
69047;SDS011;56119;50.118;8.642;2023-08-06T11:29:38;0.82;;;0.50;;
69047;SDS011;56119;50.118;8.642;2023-08-06T11:32:04;0.50;;;0.40;;
69047;SDS011;56119;50.118;8.642;2023-08-06T11:34:30;0.80;;;0.40;;
69047;SDS011;56119;50.118;8.642;2023-08-06T11:36:56;0.75;;;0.32;;
69047;SDS011;56119;50.118;8.642;2023-08-06T11:39:22;1.23;;;0.43;;
69047;SDS011;56119;50.118;8.642;2023-08-06T11:41:49;1.42;;;0.60;;
69047;SDS011;56119;50.118;8.642;2023-08-06T11:44:15;1.25;;;0.32;;
69047;SDS011;56119;50.118;8.642;2023-08-06T11:46:50;0.85;;;0.40;;
69047;SDS011;56119;50.118;8.642;2023-08-06T11:49:17;9.23;;;1.30;;
69047;SDS011;56119;50.118;8.642;2023-08-06T11:51:47;26.33;;;2.25;;
69047;SDS011;56119;50.118;8.642;2023-08-06T11:54:13;7.28;;;1.13;;
69047;SDS011;56119;50.118;8.642;2023-08-06T11:56:39;4.75;;;0.63;;
69047;SDS011;56119;50.118;8.642;2023-08-06T11:59:05;4.75;;;1.05;;
69047;SDS011;56119;50.118;8.642;2023-08-06T12:01:31;4.65;;;1.13;;
69047;SDS011;56119;50.118;8.642;2023-08-06T12:04:00;9.43;;;1.08;;
69047;SDS011;56119;50.118;8.642;2023-08-06T12:06:27;0.85;;;0.60;;
69047;SDS011;56119;50.118;8.642;2023-08-06T12:08:53;2.55;;;0.90;;
69047;SDS011;56119;50.118;8.642;2023-08-06T12:11:20;1.00;;;0.50;;
69047;SDS011;56119;50.118;8.642;2023-08-06T12:13:50;2.03;;;0.75;;
69047;SDS011;56119;50.118;8.642;2023-08-06T12:16:16;1.17;;;0.80;;
69047;SDS011;56119;50.118;8.642;2023-08-06T12:18:44;0.68;;;0.60;;
69047;SDS011;56119;50.118;8.642;2023-08-06T12:21:10;1.17;;;0.80;;
69047;SDS011;56119;50.118;8.642;2023-08-06T12:23:36;1.38;;;0.43;;
69047;SDS011;56119;50.118;8.642;2023-08-06T12:26:02;1.00;;;0.57;;
69047;SDS011;56119;50.118;8.642;2023-08-06T12:28:28;2.22;;;0.73;;
69047;SDS011;56119;50.118;8.642;2023-08-06T12:30:54;1.42;;;0.57;;
69047;SDS011;56119;50.118;8.642;2023-08-06T12:33:20;0.38;;;0.35;;
69047;SDS011;56119;50.118;8.642;2023-08-06T12:35:46;1.35;;;0.47;;
69047;SDS011;56119;50.118;8.642;2023-08-06T12:38:12;1.35;;;0.60;;
69047;SDS011;56119;50.118;8.642;2023-08-06T12:40:38;1.05;;;0.40;;
69047;SDS011;56119;50.118;8.642;2023-08-06T12:43:04;0.50;;;0.38;;
69047;SDS011;56119;50.118;8.642;2023-08-06T12:45:30;0.68;;;0.43;;
69047;SDS011;56119;50.118;8.642;2023-08-06T12:47:56;2.67;;;0.45;;
69047;SDS011;56119;50.118;8.642;2023-08-06T12:50:22;0.70;;;0.60;;
69047;SDS011;56119;50.118;8.642;2023-08-06T12:52:48;1.15;;;0.60;;
69047;SDS011;56119;50.118;8.642;2023-08-06T12:55:14;0.65;;;0.50;;
69047;SDS011;56119;50.118;8.642;2023-08-06T12:57:40;1.70;;;0.82;;
69047;SDS011;56119;50.118;8.642;2023-08-06T13:00:06;0.65;;;0.65;;
69047;SDS011;56119;50.118;8.642;2023-08-06T13:02:37;1.27;;;0.57;;
69047;SDS011;56119;50.118;8.642;2023-08-06T13:05:04;2.30;;;0.60;;
69047;SDS011;56119;50.118;8.642;2023-08-06T13:07:31;0.73;;;0.40;;
69047;SDS011;56119;50.118;8.642;2023-08-06T13:09:57;2.08;;;0.60;;
69047;SDS011;56119;50.118;8.642;2023-08-06T13:12:23;2.10;;;0.60;;
69047;SDS011;56119;50.118;8.642;2023-08-06T13:14:49;1.65;;;0.55;;
69047;SDS011;56119;50.118;8.642;2023-08-06T13:17:15;0.95;;;0.50;;
69047;SDS011;56119;50.118;8.642;2023-08-06T13:19:41;0.52;;;0.40;;
69047;SDS011;56119;50.118;8.642;2023-08-06T13:22:07;0.90;;;0.40;;
69047;SDS011;56119;50.118;8.642;2023-08-06T13:24:36;1.17;;;0.70;;
69047;SDS011;56119;50.118;8.642;2023-08-06T13:27:02;1.80;;;0.73;;
69047;SDS011;56119;50.118;8.642;2023-08-06T13:29:28;1.33;;;0.50;;
69047;SDS011;56119;50.118;8.642;2023-08-06T13:31:54;1.17;;;0.50;;
69047;SDS011;56119;50.118;8.642;2023-08-06T13:34:23;0.40;;;0.40;;
69047;SDS011;56119;50.118;8.642;2023-08-06T13:36:51;1.92;;;0.88;;
69047;SDS011;56119;50.118;8.642;2023-08-06T13:39:17;1.55;;;0.70;;
69047;SDS011;56119;50.118;8.642;2023-08-06T13:41:47;3.72;;;0.65;;
69047;SDS011;56119;50.118;8.642;2023-08-06T13:44:13;2.90;;;0.50;;
69047;SDS011;56119;50.118;8.642;2023-08-06T13:46:40;1.33;;;0.70;;
69047;SDS011;56119;50.118;8.642;2023-08-06T13:49:06;1.67;;;0.93;;
69047;SDS011;56119;50.118;8.642;2023-08-06T13:51:32;1.35;;;0.50;;
69047;SDS011;56119;50.118;8.642;2023-08-06T13:54:00;2.38;;;0.30;;
69047;SDS011;56119;50.118;8.642;2023-08-06T13:56:26;0.52;;;0.40;;
69047;SDS011;56119;50.118;8.642;2023-08-06T13:58:54;0.40;;;0.35;;
69047;SDS011;56119;50.118;8.642;2023-08-06T14:01:20;5.45;;;0.55;;
69047;SDS011;56119;50.118;8.642;2023-08-06T14:03:46;0.93;;;0.60;;
69047;SDS011;56119;50.118;8.642;2023-08-06T14:06:12;1.83;;;0.85;;
69047;SDS011;56119;50.118;8.642;2023-08-06T14:08:38;1.75;;;0.40;;
69047;SDS011;56119;50.118;8.642;2023-08-06T14:11:05;3.00;;;0.50;;
69047;SDS011;56119;50.118;8.642;2023-08-06T14:13:31;0.90;;;0.60;;
69047;SDS011;56119;50.118;8.642;2023-08-06T14:15:57;1.65;;;0.40;;
69047;SDS011;56119;50.118;8.642;2023-08-06T14:18:23;0.95;;;0.47;;
69047;SDS011;56119;50.118;8.642;2023-08-06T14:20:49;1.55;;;0.43;;
69047;SDS011;56119;50.118;8.642;2023-08-06T14:23:15;1.50;;;0.50;;
69047;SDS011;56119;50.118;8.642;2023-08-06T14:25:41;0.80;;;0.50;;
69047;SDS011;56119;50.118;8.642;2023-08-06T14:28:07;1.02;;;0.57;;
69047;SDS011;56119;50.118;8.642;2023-08-06T14:30:34;3.17;;;1.00;;
69047;SDS011;56119;50.118;8.642;2023-08-06T14:33:00;1.00;;;0.60;;
69047;SDS011;56119;50.118;8.642;2023-08-06T14:35:26;2.85;;;1.10;;
69047;SDS011;56119;50.118;8.642;2023-08-06T14:37:52;1.80;;;0.80;;
69047;SDS011;56119;50.118;8.642;2023-08-06T14:40:18;2.33;;;0.68;;
69047;SDS011;56119;50.118;8.642;2023-08-06T14:42:44;2.17;;;0.80;;
69047;SDS011;56119;50.118;8.642;2023-08-06T14:45:10;1.38;;;0.80;;
69047;SDS011;56119;50.118;8.642;2023-08-06T14:47:36;1.38;;;0.60;;
69047;SDS011;56119;50.118;8.642;2023-08-06T14:50:02;1.48;;;0.60;;
69047;SDS011;56119;50.118;8.642;2023-08-06T14:52:28;3.08;;;0.60;;
69047;SDS011;56119;50.118;8.642;2023-08-06T14:54:54;0.98;;;0.60;;
69047;SDS011;56119;50.118;8.642;2023-08-06T14:57:21;3.28;;;0.70;;